Flight Track Log - Related Links

Times and Time Zones

All times are in EDT time to prevent confusion due to time zone crossing. See the UAL1177 flight status page for this flight to view local times or setup timezone preferences in your user account.

Time Position Orientation Groundspeed Altitude Reporting Facility
EDT Latitude Longitude Course Direction KTS MPH feet Rate Location/Type
Mon 02:16:18 AM 33.9300 -118.4510 249° West 201 231 1,600  Level FlightAware ADS-B
Mon 02:16:33 AM 33.9230 -118.4660 241° Southwest 223 257 1,900 2,100 Climbing FlightAware ADS-B
Mon 02:16:58 AM 33.9080 -118.4890 232° Southwest 231 266 3,000 2,400 Climbing FlightAware ADS-B
Mon 02:17:28 AM 33.8800 -118.5220 224° Southwest 266 306 4,100 2,267 Climbing FlightAware ADS-B
Mon 02:17:43 AM 33.8650 -118.5280 198° South 274 315 4,700 3,450 Climbing FlightAware ADS-B
Mon 02:18:08 AM 33.8110 -118.5270 179° South 296 341 6,400 3,273 Climbing FlightAware ADS-B
Mon 02:18:38 AM 33.7700 -118.5250 178° South 311 358 7,700 2,945 Climbing FlightAware ADS-B
Mon 02:19:03 AM 33.7310 -118.5220 176° South 313 360 9,100 3,150 Climbing FlightAware ADS-B
Mon 02:19:18 AM 33.7110 -118.5140 162° South 321 369 9,800 2,800 Climbing FlightAware ADS-B
Mon 02:19:33 AM 33.6930 -118.4950 139° Southeast 330 380 10,500 2,000 Climbing FlightAware ADS-B
Mon 02:19:48 AM 33.6820 -118.4730 121° Southeast 344 396 10,800 1,527 Climbing FlightAware ADS-B
Mon 02:20:28 AM 33.6600 -118.3950 109° East 376 433 11,900 2,047 Climbing FlightAware ADS-B
Mon 02:21:13 AM 33.6450 -118.3020 101° East 383 441 13,700 1,694 Climbing FlightAware ADS-B
Mon 02:21:53 AM 33.6450 -118.2640 90° East 385 443 14,300 1,543 Climbing FlightAware ADS-B
Mon 02:22:23 AM 33.6720 -118.1580 73° East 399 459 15,500 2,400 Climbing FlightAware ADS-B
Mon 02:23:03 AM 33.7300 -118.1030 38° Northeast 394 453 17,100 2,250 Climbing FlightAware ADS-B
Mon 02:23:43 AM 33.7890 -118.0500 37° Northeast 402 463 18,500 2,047 Climbing FlightAware ADS-B
Mon 02:24:28 AM 33.8590 -117.9870 37° Northeast 416 479 20,000 1,906 Climbing FlightAware ADS-B
Mon 02:25:08 AM 33.9200 -117.9310 37° Northeast 424 488 21,200 1,906 Climbing FlightAware ADS-B
Mon 02:25:53 AM 33.9910 -117.8670 37° Northeast 430 495 22,700 1,835 Climbing FlightAware ADS-B
Mon 02:26:33 AM 34.0540 -117.8090 37° Northeast 437 503 23,800 1,553 Climbing FlightAware ADS-B
Mon 02:27:18 AM 34.1240 -117.7310 43° Northeast 454 522 24,900 1,412 Climbing FlightAware ADS-B
Mon 02:27:58 AM 34.1780 -117.6580 48° Northeast 461 531 25,800 1,275 Climbing FlightAware ADS-B
Mon 02:28:38 AM 34.2360 -117.5800 48° Northeast 471 542 26,600 1,200 Climbing FlightAware ADS-B
Mon 02:29:23 AM 34.3020 -117.4890 49° Northeast 481 554 27,500 1,200 Climbing FlightAware ADS-B
Mon 02:30:03 AM 34.3630 -117.4060 48° Northeast 487 560 28,300 1,129 Climbing FlightAware ADS-B
Mon 02:30:48 AM 34.4280 -117.3170 48° Northeast 493 567 29,100 988 Climbing FlightAware ADS-B
Mon 02:31:28 AM 34.4900 -117.2330 48° Northeast 500 575 29,700 975 Climbing FlightAware ADS-B
Mon 02:32:08 AM 34.5500 -117.1500 49° Northeast 503 579 30,400 1,129 Climbing FlightAware ADS-B
Mon 02:32:53 AM 34.6200 -117.0540 48° Northeast 499 574 31,300 1,271 Climbing FlightAware ADS-B
Mon 02:33:33 AM 34.6790 -116.9720 49° Northeast 498 573 32,200 1,129 Climbing FlightAware ADS-B
Mon 02:34:18 AM 34.7510 -116.8720 49° Northeast 499 574 32,900 1,129 Climbing FlightAware ADS-B
Mon 02:34:58 AM 34.8100 -116.7910 48° Northeast 494 568 33,800 1,275 Climbing FlightAware ADS-B
Mon 02:35:38 AM 34.8700 -116.7070 49° Northeast 490 564 34,600 776 Climbing FlightAware ADS-B
Mon 02:36:23 AM 34.9390 -116.6110 49° Northeast 496 571 34,900 282 Climbing FlightAware ADS-B
Mon 02:37:03 AM 35.0020 -116.5290 47° Northeast 493 567 35,000 71 Climbing FlightAware ADS-B
Mon 02:37:48 AM 35.0720 -116.4420 45° Northeast 495 570 35,000  Level FlightAware ADS-B
Mon 02:38:28 AM 35.1370 -116.3610 46° Northeast 495 570 35,000  Level FlightAware ADS-B
Mon 02:39:13 AM 35.2060 -116.2740 46° Northeast 492 566 35,000  Level FlightAware ADS-B
Mon 02:39:53 AM 35.2730 -116.1910 45° Northeast 491 565 35,000  Level FlightAware ADS-B
Mon 02:40:33 AM 35.3370 -116.1090 46° Northeast 490 564 35,000  Level FlightAware ADS-B
Mon 02:41:18 AM 35.4060 -116.0220 46° Northeast 494 568 35,000  Level FlightAware ADS-B
Mon 02:41:58 AM 35.4690 -115.9420 46° Northeast 498 573 35,000  Level FlightAware ADS-B
Mon 02:42:43 AM 35.5440 -115.8480 46° Northeast 503 579 35,000  Level FlightAware ADS-B
Mon 02:43:23 AM 35.6090 -115.7650 46° Northeast 505 581 35,000  Level FlightAware ADS-B
Mon 02:44:03 AM 35.6730 -115.6830 46° Northeast 507 583 35,000  Level FlightAware ADS-B
Mon 02:44:48 AM 35.7460 -115.5900 46° Northeast 504 580 35,000  Level FlightAware ADS-B
Mon 02:45:28 AM 35.8100 -115.5080 46° Northeast 499 574 35,000  Level FlightAware ADS-B
Mon 02:46:13 AM 35.8830 -115.4140 46° Northeast 500 575 35,000  Level FlightAware ADS-B
Mon 02:46:53 AM 35.9450 -115.3340 46° Northeast 504 580 35,000  Level FlightAware ADS-B
Mon 02:47:38 AM 36.0180 -115.2400 46° Northeast 502 578 35,000  Level FlightAware ADS-B
Mon 02:48:18 AM 36.0770 -115.1510 51° Northeast 516 594 35,000  Level FlightAware ADS-B
Mon 02:48:58 AM 36.1170 -115.0400 66° East 522 601 35,000  Level FlightAware ADS-B
Mon 02:49:43 AM 36.1560 -114.9140 69° East 520 598 35,000  Level FlightAware ADS-B
Mon 02:50:23 AM 36.1890 -114.8050 69° East 522 601 35,000  Level FlightAware ADS-B
Mon 02:51:08 AM 36.2280 -114.6790 69° East 522 601 35,000  Level FlightAware ADS-B
Mon 02:51:48 AM 36.2620 -114.5660 70° East 522 601 35,000  Level FlightAware ADS-B
Mon 02:52:28 AM 36.2960 -114.4550 69° East 522 601 35,000  Level FlightAware ADS-B
Mon 02:53:13 AM 36.3340 -114.3300 69° East 523 602 35,000  Level FlightAware ADS-B
Mon 02:53:53 AM 36.3680 -114.2150 70° East 522 601 35,000  Level FlightAware ADS-B
Mon 02:54:38 AM 36.4040 -114.0940 70° East 523 602 35,000  Level FlightAware ADS-B
Mon 02:55:18 AM 36.4390 -113.9790 69° East 521 600 35,000  Level FlightAware ADS-B
Mon 02:55:58 AM 36.4720 -113.8660 70° East 522 601 35,000  Level FlightAware ADS-B
Mon 02:56:43 AM 36.5100 -113.7380 70° East 524 603 35,000  Level FlightAware ADS-B
Mon 02:57:23 AM 36.5440 -113.6240 70° East 525 604 35,000  Level FlightAware ADS-B
Mon 02:58:03 AM 36.5770 -113.5120 70° East 527 606 35,000  Level FlightAware ADS-B
Mon 02:58:48 AM 36.6140 -113.3860 70° East 529 609 35,000  Level FlightAware ADS-B
Mon 02:59:28 AM 36.6460 -113.2730 71° East 528 608 35,000  Level FlightAware ADS-B
Mon 03:00:12 AM 36.6830 -113.1450 70° East 527 606 35,000  Level FlightAware ADS-B
Mon 03:00:52 AM 36.7160 -113.0330 70° East 529 609 35,000  Level FlightAware ADS-B
Mon 03:01:37 AM 36.7540 -112.8990 70° East 528 608 35,000  Level FlightAware ADS-B
Mon 03:02:17 AM 36.7860 -112.7870 70° East 530 610 35,000  Level FlightAware ADS-B
Mon 03:02:57 AM 36.8190 -112.6700 71° East 529 609 35,000  Level FlightAware ADS-B
Mon 03:03:37 AM 36.8500 -112.5650 70° East 530 610 35,000  Level FlightAware ADS-B
Mon 03:04:17 AM 36.8780 -112.4670 70° East 530 610 35,000  Level FlightAware ADS-B
Mon 03:05:07 AM 36.9140 -112.3440 70° East 530 610 35,000  Level FlightAware ADS-B
Mon 03:05:47 AM 36.9430 -112.2460 70° East 530 610 35,000  Level FlightAware ADS-B
Mon 03:06:27 AM 36.9710 -112.1480 70° East 530 610 35,000  Level FlightAware ADS-B
Mon 03:07:07 AM 37.0000 -112.0500 70° East 530 610 35,000  Level FlightAware ADS-B
Mon 03:07:47 AM 37.0280 -111.9520 70° East 530 610 35,000  Level FlightAware ADS-B
Mon 03:08:37 AM 37.0640 -111.8290 70° East 530 610 35,000  Level FlightAware ADS-B
Mon 03:09:17 AM 37.0920 -111.7310 70° East 530 610 35,000  Level FlightAware ADS-B
Mon 03:09:57 AM 37.1210 -111.6330 70° East 530 610 35,000  Level FlightAware ADS-B
Mon 03:10:37 AM 37.1490 -111.5350 70° East 530 610 35,000  Level FlightAware ADS-B
Mon 03:11:17 AM 37.1780 -111.4360 70° East 530 610 35,000  Level FlightAware ADS-B
Mon 03:12:07 AM 37.2130 -111.3130 70° East 530 610 35,000  Level FlightAware ADS-B
Mon 03:12:47 AM 37.2420 -111.2150 70° East 530 610 35,000  Level FlightAware ADS-B
Mon 03:13:42 AM 37.3217 -110.8417 70° East 529 609 35,000  Level Denver Center
Mon 03:14:42 AM 37.3769 -110.6311 72° East 531 611 35,000  Level Denver Center
Mon 03:15:43 AM 37.4222 -110.4558 72° East 530 610 35,000  Level Denver Center
Mon 03:16:43 AM 37.4681 -110.2797 72° East 532 612 35,000  Level Denver Center
Mon 03:17:43 AM 37.5053 -110.1364 72° East 534 615 35,000  Level Denver Center
Mon 03:18:44 AM 37.5561 -109.9364 72° East 538 619 35,000  Level Denver Center
Mon 03:19:44 AM 37.6003 -109.7653 72° East 537 618 35,000  Level Denver Center
Mon 03:20:45 AM 37.6511 -109.5647 72° East 536 617 35,000  Level Denver Center
Mon 03:21:45 AM 37.6936 -109.3939 72° East 533 613 35,000  Level Denver Center
Mon 03:22:46 AM 37.7364 -109.2236 72° East 532 612 35,000  Level Denver Center
Mon 03:23:46 AM 37.7867 -109.0219 72° East 535 616 35,000  Level Denver Center
Mon 03:24:46 AM 37.8375 -108.8553 69° East 531 611 35,000  Level Denver Center
Mon 03:25:47 AM 37.8989 -108.6914 65° Northeast 535 616 35,000  Level Denver Center
Mon 03:26:47 AM 37.9594 -108.5297 65° Northeast 534 615 35,000  Level Denver Center
Mon 03:27:48 AM 38.0308 -108.3358 65° Northeast 538 619 35,000  Level Denver Center
Mon 03:28:48 AM 38.0947 -108.1639 65° Northeast 544 626 35,000  Level Denver Center
Mon 03:29:49 AM 38.1564 -107.9964 65° Northeast 548 631 35,000  Level Denver Center
Mon 03:30:49 AM 38.2161 -107.8308 65° Northeast 541 623 35,000  Level Denver Center
Mon 03:36:06 AM 38.5588 -106.8790 65° Northeast 550 633 35,000  Level FlightAware ADS-B
Mon 03:36:36 AM 38.5903 -106.7890 66° East 552 635 35,000  Level FlightAware ADS-B
Mon 03:37:06 AM 38.6218 -106.6990 66° East 554 638 35,000  Level FlightAware ADS-B
Mon 03:37:36 AM 38.6537 -106.6090 66° East 554 638 35,000  Level FlightAware ADS-B
Mon 03:38:07 AM 38.6853 -106.5190 66° East 552 635 35,000  Level FlightAware ADS-B
Mon 03:38:37 AM 38.7167 -106.4270 66° East 553 636 35,000  Level FlightAware ADS-B
Mon 03:39:16 AM 38.7566 -106.3120 66° East 553 636 35,000  Level FlightAware ADS-B
Mon 03:39:46 AM 38.7882 -106.2210 66° East 557 641 35,000  Level FlightAware ADS-B
Mon 03:40:17 AM 38.8197 -106.1290 66° East 554 638 35,000  Level FlightAware ADS-B
Mon 03:40:47 AM 38.8504 -106.0400 66° East 551 634 35,000  Level FlightAware ADS-B
Mon 03:41:17 AM 38.8818 -105.9480 66° East 549 632 35,000  Level FlightAware ADS-B
Mon 03:41:47 AM 38.9125 -105.8590 66° East 550 633 35,000  Level FlightAware ADS-B
Mon 03:42:21 AM 38.9473 -105.7560 66° East 553 636 35,000  Level FlightAware ADS-B
Mon 03:42:52 AM 38.9781 -105.6650 66° East 554 638 35,000  Level FlightAware ADS-B
Mon 03:43:22 AM 39.0092 -105.5730 66° East 556 640 35,000  Level FlightAware ADS-B
Mon 03:43:52 AM 39.0402 -105.4820 66° East 553 636 35,000  Level FlightAware ADS-B
Mon 03:44:23 AM 39.0707 -105.3910 67° East 552 635 35,000  Level FlightAware ADS-B
Mon 03:44:54 AM 39.1019 -105.2980 67° East 553 636 35,000  Level FlightAware ADS-B
Mon 03:45:24 AM 39.1322 -105.2070 67° East 554 638 35,000  Level FlightAware ADS-B
Mon 03:45:54 AM 39.1624 -105.1160 67° East 553 636 35,000  Level FlightAware ADS-B
Mon 03:46:24 AM 39.1924 -105.0250 67° East 553 636 35,000  Level FlightAware ADS-B
Mon 03:46:54 AM 39.2228 -104.9340 67° East 554 638 35,000  Level FlightAware ADS-B
Mon 03:47:25 AM 39.2538 -104.8390 67° East 554 638 35,000  Level FlightAware ADS-B
Mon 03:47:55 AM 39.2837 -104.7480 67° East 553 636 35,000  Level FlightAware ADS-B
Mon 03:48:26 AM 39.3141 -104.6550 67° East 553 636 35,000  Level FlightAware ADS-B
Mon 03:48:56 AM 39.3439 -104.5640 67° East 554 638 35,000  Level FlightAware ADS-B
Mon 03:49:27 AM 39.3750 -104.4690 67° East 554 638 35,000  Level FlightAware ADS-B
Mon 03:49:58 AM 39.4054 -104.3750 67° East 555 639 35,000  Level FlightAware ADS-B
Mon 03:50:28 AM 39.4350 -104.2830 67° East 555 639 35,000  Level FlightAware ADS-B
Mon 03:50:58 AM 39.4649 -104.1900 67° East 553 636 35,000  Level FlightAware ADS-B
Mon 03:51:29 AM 39.4949 -104.0960 68° East 553 636 35,000  Level FlightAware ADS-B
Mon 03:51:59 AM 39.5243 -104.0040 67° East 553 636 35,000  Level FlightAware ADS-B
Mon 03:52:29 AM 39.5537 -103.9120 67° East 554 638 35,000  Level FlightAware ADS-B
Mon 03:53:00 AM 39.5833 -103.8190 68° East 556 640 35,000  Level FlightAware ADS-B
Mon 03:53:30 AM 39.6127 -103.7260 68° East 556 640 35,000  Level FlightAware ADS-B
Mon 03:54:00 AM 39.6422 -103.6320 68° East 558 642 35,000  Level FlightAware ADS-B
Mon 03:54:31 AM 39.6718 -103.5380 68° East 559 643 35,000  Level FlightAware ADS-B
Mon 03:55:01 AM 39.7013 -103.4440 68° East 559 643 35,000  Level FlightAware ADS-B
Mon 03:55:31 AM 39.7308 -103.3500 68° East 559 643 35,000  Level FlightAware ADS-B
Mon 03:56:02 AM 39.7601 -103.2560 68° East 560 644 35,000  Level FlightAware ADS-B
Mon 03:56:32 AM 39.7891 -103.1620 68° East 560 644 35,000  Level FlightAware ADS-B
Mon 03:57:03 AM 39.8190 -103.0650 68° East 561 646 35,000  Level FlightAware ADS-B
Mon 03:57:33 AM 39.8483 -102.9700 68° East 561 646 35,000  Level FlightAware ADS-B
Mon 03:58:04 AM 39.8780 -102.8730 68° East 561 646 35,000  Level FlightAware ADS-B
Mon 03:58:36 AM 39.9084 -102.7740 68° East 560 644 35,000  Level FlightAware ADS-B
Mon 03:59:06 AM 39.9374 -102.6790 68° East 559 643 35,000  Level FlightAware ADS-B
Mon 03:59:37 AM 39.9660 -102.5850 68° East 559 643 35,000  Level FlightAware ADS-B
Mon 04:00:07 AM 39.9945 -102.4900 69° East 559 643 35,000  Level FlightAware ADS-B
Mon 04:00:37 AM 40.0229 -102.3960 68° East 558 642 35,000  Level FlightAware ADS-B
Mon 04:01:07 AM 40.0512 -102.3020 69° East 558 642 35,000  Level FlightAware ADS-B
Mon 04:01:37 AM 40.0796 -102.2070 69° East 558 642 35,000  Level FlightAware ADS-B
Mon 04:02:08 AM 40.1079 -102.1120 69° East 557 641 35,000  Level FlightAware ADS-B
Mon 04:02:38 AM 40.1360 -102.0180 69° East 556 640 35,000  Level FlightAware ADS-B
Mon 04:03:08 AM 40.1639 -101.9240 69° East 555 639 35,000  Level FlightAware ADS-B
Mon 04:03:38 AM 40.1917 -101.8310 69° East 554 638 35,000  Level FlightAware ADS-B
Mon 04:04:08 AM 40.2195 -101.7360 69° East 553 636 35,000  Level FlightAware ADS-B
Mon 04:04:38 AM 40.2468 -101.6420 69° East 553 636 35,000  Level FlightAware ADS-B
Mon 04:05:09 AM 40.2746 -101.5470 69° East 552 635 35,000  Level FlightAware ADS-B
Mon 04:05:39 AM 40.3020 -101.4520 69° East 548 631 35,000  Level FlightAware ADS-B
Mon 04:06:10 AM 40.3290 -101.3590 69° East 546 628 35,000  Level FlightAware ADS-B
Mon 04:06:40 AM 40.3559 -101.2660 69° East 548 631 35,000  Level FlightAware ADS-B
Mon 04:07:13 AM 40.3857 -101.1620 69° East 549 632 35,000  Level FlightAware ADS-B
Mon 04:08:16 AM 40.4333 -100.9947 69° East 545 627 35,000  Level Denver Center
Mon 04:09:16 AM 40.5000 -100.7950 66° East 540 621 35,000  Level Denver Center
Mon 04:10:16 AM 40.5617 -100.6256 64° Northeast 543 625 35,000  Level Denver Center
Mon 04:11:16 AM 40.6233 -100.4567 64° Northeast 543 625 35,000  Level Denver Center
Mon 04:12:17 AM 40.6942 -100.2592 65° Northeast 540 621 35,000  Level Denver Center
Mon 04:13:17 AM 40.7561 -100.0856 65° Northeast 547 629 35,000  Level Denver Center
Mon 04:14:17 AM 40.8178 -99.9111 65° Northeast 550 633 35,000  Level Denver Center
Mon 04:15:18 AM 40.8806 -99.7344 65° Northeast 551 634 35,000  Level Denver Center
Mon 04:16:18 AM 40.9450 -99.5497 65° Northeast 552 635 35,000 -200 Level Denver Center
Mon 04:17:18 AM 41.0092 -99.3658 65° Northeast 550 633 34,600 -694 Descending Denver Center
Mon 04:18:19 AM 41.0725 -99.1822 65° Northeast 547 629 33,600 -923 Descending Denver Center
Mon 04:18:49 AM 41.1044 -99.0903 65° Northeast 550 633 33,200 -600 Descending Minneapolis Center
Mon 04:19:19 AM 41.1444 -98.9706 66° East 556 640 33,000 -133 Descending Denver Center
Mon 04:20:19 AM 41.2053 -98.7900 66° East 559 643 33,000  Level Denver Center
Mon 04:20:50 AM 41.2331 -98.7114 65° Northeast 562 647 33,000  Level Minneapolis Center
Mon 04:21:50 AM 41.2969 -98.5217 66° East 563 648 33,000  Level Minneapolis Center
Mon 04:22:51 AM 41.3600 -98.3322 66° East 563 648 33,000  Level Minneapolis Center
Mon 04:23:51 AM 41.4231 -98.1411 66° East 563 648 33,000  Level Minneapolis Center
Mon 04:24:51 AM 41.4875 -97.9492 66° East 564 649 33,000  Level Minneapolis Center
Mon 04:25:51 AM 41.5517 -97.7553 66° East 567 652 33,000  Level Minneapolis Center
Mon 04:26:52 AM 41.6142 -97.5603 67° East 568 654 33,000  Level Minneapolis Center
Mon 04:27:52 AM 41.6781 -97.3642 66° East 571 657 33,000  Level Minneapolis Center
Mon 04:28:52 AM 41.7403 -97.1694 67° East 571 657 33,000  Level Minneapolis Center
Mon 04:29:53 AM 41.8028 -96.9722 67° East 571 657 33,000  Level Minneapolis Center
Mon 04:30:53 AM 41.8658 -96.7742 67° East 574 661 33,000  Level Minneapolis Center
Mon 04:31:53 AM 41.9278 -96.5769 67° East 571 657 33,000  Level Minneapolis Center
Mon 04:32:53 AM 41.9894 -96.3794 67° East 570 656 33,000  Level Minneapolis Center
Mon 04:33:54 AM 42.0506 -96.1819 67° East 570 656 33,000  Level Minneapolis Center
Mon 04:34:54 AM 42.1122 -95.9803 68° East 576 663 33,000  Level Minneapolis Center
Mon 04:35:54 AM 42.1739 -95.7794 67° East 577 664 33,000  Level Minneapolis Center
Mon 04:36:55 AM 42.2344 -95.5756 68° East 581 669 33,000  Level Minneapolis Center
Mon 04:37:55 AM 42.2794 -95.3675 74° East 579 666 33,000  Level Minneapolis Center
Mon 04:43:52 AM 42.3320 -94.0690 74° East 580 667 33,000  Level FlightAware ADS-B
Mon 04:44:27 AM 42.3370 -93.9520 87° East 580 667 33,000  Level FlightAware ADS-B
Mon 04:45:07 AM 42.3420 -93.8290 87° East 580 667 33,000  Level FlightAware ADS-B
Mon 04:45:52 AM 42.3480 -93.6080 88° East 586 674 33,000  Level FlightAware ADS-B
Mon 04:46:37 AM 42.3530 -93.4530 87° East 586 674 33,000  Level FlightAware ADS-B
Mon 04:47:12 AM 42.3570 -93.3300 87° East 585 673 33,000  Level FlightAware ADS-B
Mon 04:48:02 AM 42.3620 -93.1330 88° East 583 671 33,000  Level FlightAware ADS-B
Mon 04:48:42 AM 42.3650 -93.0020 88° East 581 669 33,000  Level FlightAware ADS-B
Mon 04:49:27 AM 42.3690 -92.8260 88° East 580 667 33,000  Level FlightAware ADS-B
Mon 04:50:07 AM 42.3730 -92.6830 88° East 580 667 33,000  Level FlightAware ADS-B
Mon 04:50:47 AM 42.3760 -92.5490 88° East 579 666 33,000  Level FlightAware ADS-B
Mon 04:51:32 AM 42.3790 -92.3840 89° East 578 665 33,000  Level FlightAware ADS-B
Mon 04:52:12 AM 42.3820 -92.2440 88° East 578 665 33,000  Level FlightAware ADS-B
Mon 04:52:52 AM 42.3840 -92.0990 89° East 578 665 33,000  Level FlightAware ADS-B
Mon 04:53:37 AM 42.3860 -91.9270 89° East 576 663 33,000  Level FlightAware ADS-B
Mon 04:54:17 AM 42.3870 -91.7830 89° East 575 662 33,000  Level FlightAware ADS-B
Mon 04:55:02 AM 42.3890 -91.6190 89° East 572 658 33,000  Level FlightAware ADS-B
Mon 04:55:42 AM 42.3900 -91.4810 89° East 571 657 33,000  Level FlightAware ADS-B
Mon 04:56:17 AM 42.3910 -91.3530 89° East 570 656 33,000  Level FlightAware ADS-B
Mon 04:57:07 AM 42.3920 -91.1760 90° East 567 652 33,000  Level FlightAware ADS-B
Mon 04:57:47 AM 42.3930 -91.0380 89° East 567 652 33,000  Level FlightAware ADS-B
Mon 04:58:32 AM 42.3930 -90.8750 90° East 566 651 33,000  Level FlightAware ADS-B
Mon 04:59:12 AM 42.3940 -90.7380 89° East 565 650 33,000 -918 Level FlightAware ADS-B
Mon 04:59:57 AM 42.3940 -90.5820 90° East 558 642 31,700 -2,175 Descending FlightAware ADS-B
Mon 05:00:32 AM 42.3930 -90.4560 91° East 559 643 30,100 -2,480 Descending FlightAware ADS-B
Mon 05:01:12 AM 42.3920 -90.3130 90° East 549 632 28,600 -2,267 Descending FlightAware ADS-B
Mon 05:02:02 AM 42.3930 -90.1440 89° East 533 613 26,700 -2,200 Descending FlightAware ADS-B
Mon 05:02:42 AM 42.3930 -90.0150 90° East 522 601 25,300 -2,188 Descending FlightAware ADS-B
Mon 05:03:27 AM 42.3910 -89.8710 91° East 503 579 23,600 -1,950 Descending FlightAware ADS-B
Mon 05:04:02 AM 42.3910 -89.7650 90° East 489 563 22,700 -1,575 Descending FlightAware ADS-B
Mon 05:04:47 AM 42.3890 -89.6330 91° East 458 527 21,500 -1,867 Descending FlightAware ADS-B
Mon 05:05:32 AM 42.3880 -89.5080 91° East 444 511 19,900 -2,471 Descending FlightAware ADS-B
Mon 05:06:12 AM 42.3870 -89.3980 91° East 443 510 18,000 -2,753 Descending FlightAware ADS-B
Mon 05:06:57 AM 42.3860 -89.2730 91° East 434 499 16,000 -2,259 Descending FlightAware ADS-B
Mon 05:07:37 AM 42.3850 -89.1720 91° East 424 488 14,800 -1,482 Descending FlightAware ADS-B
Mon 05:08:22 AM 42.3840 -89.0480 91° East 401 461 13,900 -1,059 Descending FlightAware ADS-B
Mon 05:09:02 AM 42.3830 -88.9510 91° East 388 447 13,300 -1,050 Descending FlightAware ADS-B
Mon 05:09:42 AM 42.3810 -88.8630 92° East 378 435 12,500 -1,412 Descending FlightAware ADS-B
Mon 05:10:27 AM 42.3790 -88.7530 91° East 368 423 11,300 -1,125 Descending FlightAware ADS-B
Mon 05:11:02 AM 42.3650 -88.6800 105° East 332 382 11,000 -847 Descending FlightAware ADS-B
Mon 05:11:52 AM 42.3320 -88.5920 117° Southeast 307 353 10,100 -1,120 Descending FlightAware ADS-B
Mon 05:12:17 AM 42.3170 -88.5510 116° Southeast 300 345 9,600 -1,371 Descending FlightAware ADS-B
Mon 05:12:27 AM 42.3110 -88.5340 116° Southeast 300 345 9,300 -1,600 Descending FlightAware ADS-B
Mon 05:13:02 AM 42.2890 -88.4750 117° Southeast 293 337 8,400 -1,309 Descending FlightAware ADS-B
Mon 05:13:22 AM 42.2770 -88.4440 118° Southeast 285 328 8,100 -857 Descending FlightAware ADS-B
Mon 05:13:37 AM 42.2700 -88.4250 116° Southeast 277 319 7,900 -720 Descending FlightAware ADS-B
Mon 05:14:12 AM 42.2490 -88.3690 117° Southeast 249 287 7,500 -700 Descending FlightAware ADS-B
Mon 05:14:37 AM 42.2370 -88.3360 116° Southeast 234 269 7,200 -873 Descending FlightAware ADS-B
Mon 05:15:07 AM 42.2220 -88.2960 117° Southeast 222 255 6,700 -982 Descending FlightAware ADS-B
Mon 05:15:32 AM 42.2120 -88.2690 117° Southeast 217 250 6,300 -1,080 Descending FlightAware ADS-B
Mon 05:15:57 AM 42.2010 -88.2400 117° Southeast 214 246 5,800 -1,400 Descending FlightAware ADS-B
Mon 05:16:32 AM 42.1830 -88.1930 117° Southeast 219 252 4,900 -1,200 Descending FlightAware ADS-B
Mon 05:16:52 AM 42.1750 -88.1700 115° Southeast 210 242 4,700 -764 Descending FlightAware ADS-B
Mon 05:17:27 AM 42.1590 -88.1300 118° Southeast 197 227 4,200 -600 Descending FlightAware ADS-B
Mon 05:17:42 AM 42.1520 -88.1180 128° Southeast 184 212 4,200  Level FlightAware ADS-B
Mon 05:18:02 AM 42.1400 -88.1020 135° Southeast 183 211 4,200 -133 Level FlightAware ADS-B
Mon 05:18:27 AM 42.1230 -88.0820 139° Southeast 181 208 4,100 -500 Descending FlightAware ADS-B
Mon 05:19:02 AM 42.1020 -88.0580 140° Southeast 179 206 3,700 -840 Descending FlightAware ADS-B
Mon 05:19:17 AM 42.0920 -88.0470 141° Southeast 173 199 3,400 -933 Descending FlightAware ADS-B
Mon 05:19:47 AM 42.0750 -88.0290 142° Southeast 152 175 3,000 -764 Descending FlightAware ADS-B
Mon 05:20:12 AM 42.0620 -88.0140 139° Southeast 146 168 2,700 -750 Descending FlightAware ADS-B
Mon 05:20:27 AM 42.0540 -88.0040 137° Southeast 146 168 2,500 -857 Descending FlightAware ADS-B
Mon 05:20:47 AM 42.0430 -87.9930 143° Southeast 151 174 2,200 -873 Descending FlightAware ADS-B
Mon 05:21:22 AM 42.0240 -87.9710 139° Southeast 145 167 1,700 -738 Descending FlightAware ADS-B
Mon 05:21:52 AM 42.0100 -87.9550 140° Southeast 147 169 1,400 -764 Descending FlightAware ADS-B
Mon 05:22:17 AM 41.9950 -87.9390 142° Southeast 152 175 1,000 -960 Descending FlightAware ADS-B

Login

Don't have an account? Register now (free) for customized features, flight alerts, and more!